Time;durP1;ratioP1;P1;durP2;ratioP2;P2;SDS_P1;SDS_P2;PMS_P1;PMS_P2;Temp;Humidity;BMP_temperature;BMP_pressure;BME280_temperature;BME280_humidity;BME280_pressure;Samples;Min_cycle;Max_cycle;Signal;HPM_P1;HPM_P2
2024/02/10 00:01:48;;;;;;;12.80;2.27;;;23.00;74.00;;;;;;5067514;28;20269;-71
2024/02/10 00:04:19;;;;;;;12.03;2.40;;;22.90;72.70;;;;;;5069355;28;20188;-71
2024/02/10 00:06:46;;;;;;;10.40;1.93;;;22.80;72.20;;;;;;5067880;28;20184;-70
2024/02/10 00:09:14;;;;;;;10.77;1.87;;;22.70;71.20;;;;;;5058407;28;20668;-71
2024/02/10 00:11:42;;;;;;;9.23;2.10;;;23.10;70.00;;;;;;5058512;28;20270;-71
2024/02/10 00:14:12;;;;;;;6.30;1.43;;;23.50;69.10;;;;;;5061794;28;20703;-72
2024/02/10 00:16:39;;;;;;;10.87;2.00;;;23.40;68.60;;;;;;5057831;28;20234;-71
2024/02/10 00:19:09;;;;;;;8.30;1.73;;;23.60;68.70;;;;;;5068243;28;20202;-71
2024/02/10 00:21:39;;;;;;;11.53;2.23;;;23.70;67.00;;;;;;5064293;28;20171;-71
2024/02/10 00:24:07;;;;;;;8.30;1.70;;;23.70;66.40;;;;;;5068509;28;20187;-75
2024/02/10 00:26:35;;;;;;;10.83;2.17;;;23.40;67.40;;;;;;5057884;28;20219;-72
2024/02/10 00:29:02;;;;;;;6.00;1.93;;;23.50;67.00;;;;;;5061791;28;20557;-72
2024/02/10 00:31:30;;;;;;;10.50;1.97;;;23.30;66.70;;;;;;5063826;28;20256;-73
2024/02/10 00:33:57;;;;;;;12.20;2.73;;;23.10;66.30;;;;;;5067599;28;20525;-73
2024/02/10 00:36:25;;;;;;;10.10;2.07;;;23.40;66.60;;;;;;5066478;28;20227;-72
2024/02/10 00:38:53;;;;;;;10.53;2.13;;;23.30;65.80;;;;;;5065970;28;20192;-72
2024/02/10 00:41:20;;;;;;;8.13;1.83;;;23.30;66.50;;;;;;5071780;28;20325;-72
2024/02/10 00:43:49;;;;;;;14.17;2.57;;;23.30;67.00;;;;;;5071079;28;20247;-73
2024/02/10 00:46:16;;;;;;;6.67;1.77;;;23.30;67.00;;;;;;5062108;28;20266;-71
2024/02/10 00:48:47;;;;;;;9.90;1.93;;;23.30;65.80;;;;;;5065509;28;20182;-74
2024/02/10 00:51:15;;;;;;;10.97;2.17;;;23.20;65.60;;;;;;5072622;28;20191;-73
2024/02/10 00:53:42;;;;;;;15.00;2.07;;;23.10;66.20;;;;;;5072459;28;20188;-71
2024/02/10 00:56:13;;;;;;;12.07;1.60;;;23.20;66.20;;;;;;5066614;28;20183;-70
2024/02/10 00:58:44;;;;;;;12.70;2.73;;;23.50;66.50;;;;;;5067823;28;20180;-76
2024/02/10 01:01:20;;;;;;;8.40;2.17;;;23.70;64.40;;;;;;5062905;28;20188;-72
2024/02/10 01:03:48;;;;;;;9.83;1.90;;;23.80;63.60;;;;;;5067259;28;20190;-71
2024/02/10 01:06:21;;;;;;;9.97;2.23;;;23.60;63.30;;;;;;5065881;28;20207;-74
2024/02/10 01:08:52;;;;;;;9.17;2.07;;;23.80;61.50;;;;;;5073158;28;20256;-71
2024/02/10 01:11:22;;;;;;;7.43;1.70;;;23.40;60.00;;;;;;5072577;28;20538;-72
2024/02/10 01:13:50;;;;;;;10.23;1.73;;;23.80;59.80;;;;;;5066818;28;20180;-73
2024/02/10 01:16:18;;;;;;;9.20;1.77;;;24.20;57.90;;;;;;5063107;28;20212;-73
2024/02/10 01:18:50;;;;;;;9.43;1.93;;;24.60;56.30;;;;;;5068036;28;20184;-72
2024/02/10 01:21:17;;;;;;;6.97;1.50;;;24.70;57.40;;;;;;5064966;28;20210;-75
2024/02/10 01:23:49;;;;;;;9.80;2.17;;;24.60;57.70;;;;;;5070504;28;20207;-74
2024/02/10 01:26:17;;;;;;;7.73;1.70;;;24.80;57.70;;;;;;5067746;28;20237;-74
2024/02/10 01:28:44;;;;;;;6.60;1.57;;;25.10;57.90;;;;;;5062507;28;20183;-73
2024/02/10 01:31:13;;;;;;;11.23;2.10;;;25.40;56.40;;;;;;5065943;28;20195;-74
2024/02/10 01:33:44;;;;;;;9.40;1.70;;;25.60;55.50;;;;;;5069605;28;20180;-72
2024/02/10 01:36:11;;;;;;;7.57;1.70;;;25.30;56.00;;;;;;5061787;28;20247;-74
2024/02/10 01:38:46;;;;;;;7.77;1.53;;;25.20;56.30;;;;;;5062336;28;20235;-72
2024/02/10 01:41:15;;;;;;;4.97;1.93;;;24.90;56.70;;;;;;5062015;28;20182;-71
2024/02/10 01:43:44;;;;;;;7.90;1.80;;;25.20;57.70;;;;;;5062973;28;20192;-71
2024/02/10 01:46:22;;;;;;;8.23;1.63;;;25.50;55.60;;;;;;5061045;28;20540;-71
2024/02/10 01:48:50;;;;;;;7.13;1.40;;;25.60;54.00;;;;;;5061707;28;20634;-72
2024/02/10 01:51:24;;;;;;;5.13;1.70;;;26.00;53.60;;;;;;5071997;28;20270;-73
2024/02/10 01:53:54;;;;;;;9.10;1.73;;;26.10;53.10;;;;;;5064551;28;20257;-72
2024/02/10 01:56:22;;;;;;;9.63;1.97;;;26.40;53.10;;;;;;5061758;28;20208;-73
2024/02/10 01:58:49;;;;;;;6.10;1.67;;;26.30;53.80;;;;;;5063472;28;20604;-72
2024/02/10 02:01:20;;;;;;;9.23;1.90;;;26.00;55.70;;;;;;5071945;28;20179;-72
2024/02/10 02:03:48;;;;;;;9.90;1.70;;;26.10;54.70;;;;;;5063868;28;20191;-75
2024/02/10 02:06:24;;;;;;;8.57;1.60;;;26.50;54.80;;;;;;5072022;28;20186;-72
2024/02/10 02:08:52;;;;;;;6.53;2.00;;;26.20;53.90;;;;;;5062845;28;20210;-73
2024/02/10 02:11:23;;;;;;;5.80;1.60;;;26.40;54.40;;;;;;5067564;28;20180;-73
2024/02/10 02:13:50;;;;;;;9.40;2.03;;;26.00;54.90;;;;;;5066896;28;20179;-73
2024/02/10 02:16:18;;;;;;;7.00;1.63;;;25.50;55.60;;;;;;5070696;28;20255;-73
2024/02/10 02:18:46;;;;;;;6.43;1.63;;;25.60;56.40;;;;;;5065246;28;20190;-73
2024/02/10 02:21:13;;;;;;;6.53;1.70;;;25.60;55.90;;;;;;5070395;28;20183;-75
2024/02/10 02:23:41;;;;;;;7.53;1.60;;;25.50;56.20;;;;;;5068568;28;20184;-72
2024/02/10 02:26:08;;;;;;;5.87;1.90;;;25.40;56.90;;;;;;5069352;28;20190;-74
2024/02/10 02:28:37;;;;;;;6.63;2.10;;;25.50;56.80;;;;;;5065754;28;20783;-72
2024/02/10 02:31:05;;;;;;;4.93;1.50;;;25.50;57.30;;;;;;5064943;28;20206;-71
2024/02/10 02:33:32;;;;;;;6.13;1.30;;;26.30;55.10;;;;;;5062403;28;20198;-72
2024/02/10 02:36:00;;;;;;;5.50;1.80;;;26.30;54.70;;;;;;5060362;28;20310;-72
2024/02/10 02:38:27;;;;;;;7.73;1.40;;;26.00;55.00;;;;;;5061849;28;20184;-71
2024/02/10 02:40:54;;;;;;;7.37;1.80;;;25.80;54.50;;;;;;5065727;28;20194;-73
2024/02/10 02:43:22;;;;;;;9.27;2.00;;;25.50;56.90;;;;;;5061141;28;20259;-73
2024/02/10 02:45:49;;;;;;;9.00;1.53;;;25.80;56.20;;;;;;5067198;28;20183;-73
2024/02/10 02:48:16;;;;;;;4.67;1.40;;;25.50;55.50;;;;;;5063496;28;20547;-72
2024/02/10 02:50:46;;;;;;;8.20;1.80;;;25.80;54.30;;;;;;5082641;28;20271;-74
2024/02/10 02:53:14;;;;;;;9.03;1.57;;;25.50;55.30;;;;;;5074938;28;20702;-75
2024/02/10 02:55:44;;;;;;;10.67;1.60;;;25.70;55.60;;;;;;5071547;28;20264;-72
2024/02/10 02:58:11;;;;;;;4.10;1.33;;;25.90;54.30;;;;;;5071878;28;20310;-73
2024/02/10 03:00:39;;;;;;;5.13;1.20;;;26.40;52.80;;;;;;5073641;28;20174;-74
2024/02/10 03:03:06;;;;;;;6.70;1.40;;;26.50;53.10;;;;;;5072630;28;20186;-73
2024/02/10 03:05:34;;;;;;;8.67;1.30;;;26.60;49.20;;;;;;5072831;28;20171;-72
2024/02/10 03:08:01;;;;;;;6.60;1.20;;;26.40;49.50;;;;;;5073219;28;20179;-73
2024/02/10 03:10:29;;;;;;;6.57;1.80;;;26.80;49.50;;;;;;5072621;28;20270;-72
2024/02/10 03:12:56;;;;;;;6.63;1.47;;;27.00;49.00;;;;;;5073180;28;20187;-76
2024/02/10 03:15:25;;;;;;;5.40;1.43;;;26.50;49.30;;;;;;5072607;28;20536;-72
2024/02/10 03:17:53;;;;;;;6.20;1.50;;;26.10;51.50;;;;;;5070084;28;20219;-73
2024/02/10 03:20:28;;;;;;;5.43;1.53;;;26.10;52.90;;;;;;5070961;28;20215;-72
2024/02/10 03:23:01;;;;;;;5.67;1.50;;;26.30;53.10;;;;;;5073318;28;20163;-73
2024/02/10 03:25:29;;;;;;;8.47;1.53;;;27.00;51.40;;;;;;5072715;28;20232;-71
2024/02/10 03:27:57;;;;;;;8.27;1.57;;;26.80;52.60;;;;;;5072980;28;20210;-76
2024/02/10 03:30:24;;;;;;;8.37;1.80;;;26.30;53.90;;;;;;5072444;28;20206;-73
2024/02/10 03:32:55;;;;;;;7.57;1.67;;;26.60;55.00;;;;;;5072606;28;20253;-72
2024/02/10 03:35:24;;;;;;;6.77;1.63;;;26.30;55.70;;;;;;5072620;28;20242;-70
2024/02/10 03:37:51;;;;;;;9.07;1.47;;;25.80;56.60;;;;;;5072557;28;20294;-72
2024/02/10 03:40:22;;;;;;;11.40;1.50;;;25.70;57.90;;;;;;5072418;28;20207;-72
2024/02/10 03:42:50;;;;;;;6.73;2.10;;;25.80;56.70;;;;;;5073129;28;20194;-74
2024/02/10 03:45:18;;;;;;;11.27;2.00;;;25.60;57.10;;;;;;5073011;28;20183;-72
2024/02/10 03:47:45;;;;;;;7.93;1.83;;;25.30;58.40;;;;;;5069492;28;20175;-76
2024/02/10 03:50:13;;;;;;;7.23;2.00;;;25.10;60.10;;;;;;5060555;28;20257;-73
2024/02/10 03:52:41;;;;;;;6.00;1.80;;;24.90;60.80;;;;;;5072679;28;20179;-72
2024/02/10 03:55:08;;;;;;;6.43;1.80;;;25.30;59.50;;;;;;5072641;28;20183;-73
2024/02/10 03:57:37;;;;;;;9.57;1.40;;;26.30;56.10;;;;;;5077716;28;20289;-74
2024/02/10 04:00:10;;;;;;;8.90;1.70;;;26.50;55.20;;;;;;5072464;28;20172;-72
2024/02/10 04:02:37;;;;;;;6.17;1.73;;;26.70;54.90;;;;;;5075822;28;20324;-74
2024/02/10 04:05:06;;;;;;;9.53;1.50;;;27.10;53.30;;;;;;5072027;28;20206;-72
2024/02/10 04:07:35;;;;;;;4.83;1.30;;;26.90;50.30;;;;;;5071730;28;20187;-73
2024/02/10 04:10:08;;;;;;;5.97;1.83;;;27.30;50.10;;;;;;5073609;28;20698;-74
2024/02/10 04:12:35;;;;;;;10.67;1.40;;;27.60;50.20;;;;;;5075529;28;20273;-72
2024/02/10 04:15:04;;;;;;;7.17;1.53;;;27.80;51.50;;;;;;5076246;28;20179;-73
2024/02/10 04:17:31;;;;;;;6.63;1.67;;;27.90;49.70;;;;;;5073034;28;20215;-74
2024/02/10 04:20:00;;;;;;;7.47;1.50;;;27.20;51.00;;;;;;5065023;28;20176;-73
2024/02/10 04:22:28;;;;;;;11.23;2.10;;;27.40;52.00;;;;;;5072248;28;20187;-73
2024/02/10 04:24:57;;;;;;;9.57;1.60;;;28.10;52.70;;;;;;5076904;28;20178;-72
2024/02/10 04:27:25;;;;;;;7.63;1.73;;;29.10;49.70;;;;;;5077876;28;20181;-71
2024/02/10 04:29:54;;;;;;;7.03;1.53;;;29.30;50.10;;;;;;5069936;28;20183;-73
2024/02/10 04:32:21;;;;;;;6.37;1.40;;;28.00;48.90;;;;;;5081115;28;20235;-72
2024/02/10 04:34:49;;;;;;;7.93;1.60;;;28.50;48.10;;;;;;5069765;28;20179;-73
2024/02/10 04:37:19;;;;;;;11.87;1.60;;;29.30;47.60;;;;;;5078639;28;20215;-71
2024/02/10 04:39:47;;;;;;;5.90;1.43;;;29.20;46.80;;;;;;5078791;28;20174;-71
2024/02/10 04:42:14;;;;;;;4.77;1.40;;;28.20;48.80;;;;;;5087633;28;20266;-71
2024/02/10 04:44:48;;;;;;;5.80;1.40;;;28.70;47.90;;;;;;5076053;28;20180;-73
2024/02/10 04:47:16;;;;;;;6.27;1.53;;;28.80;48.40;;;;;;5067807;28;20190;-76
2024/02/10 04:49:44;;;;;;;7.67;1.73;;;28.30;48.80;;;;;;5081050;28;20179;-73
2024/02/10 04:52:11;;;;;;;7.53;1.47;;;28.00;50.60;;;;;;5073819;28;20630;-72
2024/02/10 04:54:38;;;;;;;7.27;1.40;;;27.40;52.20;;;;;;5069476;28;20171;-74
2024/02/10 04:57:06;;;;;;;5.90;1.43;;;27.80;52.70;;;;;;5086658;28;20211;-75
2024/02/10 04:59:33;;;;;;;4.90;1.37;;;27.70;51.70;;;;;;5075057;28;20187;-74
2024/02/10 05:02:02;;;;;;;5.53;1.53;;;27.40;52.50;;;;;;5074216;28;20666;-73
2024/02/10 05:04:29;;;;;;;5.37;1.40;;;27.10;52.80;;;;;;5076256;28;20187;-73
2024/02/10 05:06:59;;;;;;;6.23;1.50;;;28.10;51.20;;;;;;5074421;28;20194;-73
2024/02/10 05:09:27;;;;;;;9.17;1.77;;;28.30;50.20;;;;;;5070603;28;20211;-71
2024/02/10 05:11:54;;;;;;;6.83;1.43;;;28.20;51.50;;;;;;5079918;28;20186;-74
2024/02/10 05:14:22;;;;;;;11.87;1.90;;;27.40;53.20;;;;;;5077342;28;20176;-73
2024/02/10 05:16:49;;;;;;;6.77;1.57;;;27.40;53.30;;;;;;5069651;28;20255;-74
2024/02/10 05:19:18;;;;;;;7.17;1.60;;;27.80;51.70;;;;;;5064907;28;20190;-74
2024/02/10 05:21:45;;;;;;;11.43;1.63;;;26.70;53.60;;;;;;5061729;28;20188;-75
2024/02/10 05:24:15;;;;;;;5.57;1.40;;;27.00;53.10;;;;;;5071383;28;20183;-72
2024/02/10 05:26:43;;;;;;;3.20;1.10;;;27.10;52.10;;;;;;5066453;28;20211;-74
2024/02/10 05:29:10;;;;;;;7.03;1.20;;;28.00;49.50;;;;;;5072927;28;20187;-75
2024/02/10 05:31:38;;;;;;;8.57;1.50;;;28.00;50.00;;;;;;5077233;28;20630;-72
2024/02/10 05:34:06;;;;;;;6.43;1.50;;;27.70;51.70;;;;;;5074298;28;20299;-75
2024/02/10 05:36:36;;;;;;;7.27;1.80;;;28.50;49.60;;;;;;5070455;28;20219;-72
2024/02/10 05:39:08;;;;;;;8.03;1.67;;;28.00;50.80;;;;;;5071911;28;20732;-73
2024/02/10 05:41:37;;;;;;;9.90;1.83;;;27.00;54.40;;;;;;5066329;28;20183;-73
2024/02/10 05:44:12;;;;;;;6.67;1.53;;;26.90;54.90;;;;;;5069779;28;20183;-71
2024/02/10 05:46:44;;;;;;;9.43;1.53;;;26.70;54.60;;;;;;5073895;28;20187;-73
2024/02/10 05:49:11;;;;;;;6.97;1.50;;;26.70;55.20;;;;;;5072379;28;20614;-72
2024/02/10 05:51:39;;;;;;;7.00;1.50;;;26.10;55.70;;;;;;5074096;28;20191;-71
2024/02/10 05:54:06;;;;;;;7.10;1.37;;;25.60;57.60;;;;;;5073891;28;20580;-72
2024/02/10 05:56:35;;;;;;;6.23;1.17;;;26.20;55.40;;;;;;5073687;28;20203;-71
2024/02/10 05:59:05;;;;;;;6.03;1.30;;;26.30;54.70;;;;;;5074063;28;20198;-73
2024/02/10 06:01:35;;;;;;;8.90;1.63;;;25.90;55.40;;;;;;5071849;28;20183;-73
2024/02/10 06:04:08;;;;;;;8.83;1.80;;;25.60;56.40;;;;;;5073135;28;20649;-73
2024/02/10 06:06:37;;;;;;;7.13;1.50;;;25.80;57.20;;;;;;5073303;28;20674;-72
2024/02/10 06:09:07;;;;;;;9.33;1.47;;;25.30;57.60;;;;;;5072706;28;20536;-72
2024/02/10 06:11:35;;;;;;;6.17;1.47;;;24.90;57.50;;;;;;5071083;28;20650;-72
2024/02/10 06:14:07;;;;;;;8.13;1.40;;;24.90;58.30;;;;;;5073456;28;20183;-72
2024/02/10 06:16:35;;;;;;;9.53;1.53;;;25.20;58.60;;;;;;5072926;28;20221;-73
2024/02/10 06:19:04;;;;;;;9.17;1.70;;;25.00;59.60;;;;;;5071206;28;20182;-72
2024/02/10 06:21:33;;;;;;;7.90;1.70;;;24.80;60.90;;;;;;5072925;28;20183;-72
2024/02/10 06:24:01;;;;;;;9.57;1.80;;;24.80;61.20;;;;;;5068806;28;20183;-72
2024/02/10 06:26:30;;;;;;;11.50;1.90;;;24.70;62.10;;;;;;5069784;28;20202;-72
2024/02/10 06:28:58;;;;;;;6.17;1.47;;;24.70;62.30;;;;;;5072833;28;20252;-72
2024/02/10 06:31:26;;;;;;;11.73;2.00;;;25.00;60.60;;;;;;5071205;28;20224;-71
2024/02/10 06:33:54;;;;;;;8.13;2.00;;;24.80;60.00;;;;;;5069758;28;20650;-71
2024/02/10 06:36:21;;;;;;;8.23;1.57;;;24.50;60.80;;;;;;5072345;28;20223;-70
2024/02/10 06:38:49;;;;;;;11.70;1.90;;;24.40;61.20;;;;;;5080152;28;20273;-71
2024/02/10 06:41:16;;;;;;;7.50;1.70;;;25.40;60.50;;;;;;5073022;28;20183;-78
2024/02/10 06:43:44;;;;;;;5.93;1.60;;;27.10;55.20;;;;;;5070424;28;20187;-72
2024/02/10 06:46:13;;;;;;;11.77;1.97;;;26.90;55.40;;;;;;5071342;28;20186;-71
2024/02/10 06:48:41;;;;;;;11.87;1.83;;;26.20;57.40;;;;;;5070998;28;20183;-72
2024/02/10 06:51:11;;;;;;;8.50;1.97;;;26.60;56.90;;;;;;5070617;28;20562;-74
2024/02/10 06:53:42;;;;;;;12.63;2.10;;;26.60;57.40;;;;;;5070517;28;20206;-72
2024/02/10 06:56:09;;;;;;;6.83;1.60;;;26.40;57.50;;;;;;5072149;28;20176;-74
2024/02/10 06:58:38;;;;;;;8.43;2.27;;;25.80;57.70;;;;;;5065152;28;20186;-73
2024/02/10 07:01:06;;;;;;;5.40;1.63;;;25.00;61.30;;;;;;5069425;28;20182;-71
2024/02/10 07:03:35;;;;;;;8.63;1.77;;;24.80;62.30;;;;;;5070856;28;21427;-71
2024/02/10 07:06:03;;;;;;;9.37;1.97;;;26.10;59.90;;;;;;5071810;28;20186;-72
2024/02/10 07:08:31;;;;;;;12.27;2.03;;;25.80;57.80;;;;;;5072648;28;20650;-72
2024/02/10 07:10:58;;;;;;;10.33;2.40;;;25.30;60.10;;;;;;5073514;28;20187;-71
2024/02/10 07:13:26;;;;;;;6.43;1.97;;;24.80;62.70;;;;;;5074253;28;20187;-72
2024/02/10 07:15:54;;;;;;;9.17;1.83;;;24.50;64.30;;;;;;5075581;28;20535;-71
2024/02/10 07:18:22;;;;;;;8.97;2.00;;;24.60;64.70;;;;;;5073674;28;20236;-72
2024/02/10 07:20:51;;;;;;;10.23;2.00;;;24.60;64.50;;;;;;5065999;28;20186;-71
2024/02/10 07:23:20;;;;;;;13.20;2.67;;;24.30;65.40;;;;;;5070056;28;20182;-70
2024/02/10 07:25:48;;;;;;;10.67;2.20;;;24.20;66.20;;;;;;5071560;28;20178;-72
2024/02/10 07:28:19;;;;;;;13.20;2.47;;;24.20;66.60;;;;;;5072461;28;20176;-73
2024/02/10 07:30:51;;;;;;;12.10;2.63;;;24.10;66.60;;;;;;5071503;28;20641;-73
2024/02/10 07:33:21;;;;;;;9.80;2.60;;;24.10;66.50;;;;;;5071406;28;20179;-73
2024/02/10 07:35:49;;;;;;;16.43;2.70;;;23.80;66.60;;;;;;5071079;28;20625;-71
2024/02/10 07:38:26;;;;;;;16.40;3.23;;;24.00;66.50;;;;;;5072590;28;20215;-71
2024/02/10 07:40:56;;;;;;;13.53;2.87;;;24.30;66.40;;;;;;5072280;28;20558;-71
2024/02/10 07:43:27;;;;;;;13.70;2.40;;;24.30;66.50;;;;;;5072158;28;20537;-71
2024/02/10 07:45:54;;;;;;;13.23;2.77;;;24.30;67.10;;;;;;5071663;28;20183;-71
2024/02/10 07:48:22;;;;;;;17.03;3.00;;;24.00;67.60;;;;;;5071455;28;20521;-72
2024/02/10 07:50:52;;;;;;;18.87;3.37;;;23.80;68.50;;;;;;5065964;28;20215;-72
2024/02/10 07:53:19;;;;;;;20.50;3.13;;;23.70;69.50;;;;;;5079037;28;20179;-71
2024/02/10 07:55:50;;;;;;;19.83;3.20;;;23.70;69.70;;;;;;5071627;28;20203;-71
2024/02/10 07:58:18;;;;;;;18.03;3.10;;;23.90;69.00;;;;;;5071991;28;20211;-71
2024/02/10 08:00:46;;;;;;;14.73;2.97;;;23.70;68.90;;;;;;5071593;28;20207;-71
2024/02/10 08:03:14;;;;;;;22.17;3.30;;;23.60;69.60;;;;;;5072407;28;20183;-71
2024/02/10 08:05:42;;;;;;;16.73;3.63;;;23.60;70.10;;;;;;5072289;28;20175;-72
2024/02/10 08:08:10;;;;;;;17.80;4.17;;;23.60;70.40;;;;;;5071708;28;20225;-72
2024/02/10 08:10:37;;;;;;;20.53;4.50;;;23.50;70.90;;;;;;5071914;28;20662;-71
2024/02/10 08:13:05;;;;;;;23.20;4.43;;;23.40;71.30;;;;;;5072176;28;20167;-72
2024/02/10 08:15:32;;;;;;;22.83;3.80;;;23.10;71.70;;;;;;5072059;28;20274;-72
2024/02/10 08:18:05;;;;;;;24.50;4.27;;;23.00;72.10;;;;;;5071582;28;20211;-72
2024/02/10 08:20:32;;;;;;;23.60;4.33;;;23.00;72.80;;;;;;5070350;28;20179;-73
2024/02/10 08:23:00;;;;;;;28.07;5.93;;;22.90;73.20;;;;;;5071608;28;20187;-71
2024/02/10 08:25:30;;;;;;;18.77;4.33;;;22.90;73.50;;;;;;5071872;28;20183;-71
2024/02/10 08:27:59;;;;;;;21.13;4.63;;;23.00;73.90;;;;;;5071877;28;20191;-70
2024/02/10 08:30:27;;;;;;;28.93;5.70;;;23.00;73.90;;;;;;5069874;28;20237;-71
2024/02/10 08:32:56;;;;;;;30.80;5.30;;;23.00;73.70;;;;;;5071508;28;20236;-72
2024/02/10 08:35:27;;;;;;;28.60;5.00;;;22.90;74.00;;;;;;5071594;28;20225;-71
2024/02/10 08:37:55;;;;;;;22.83;4.53;;;22.80;74.20;;;;;;5071416;28;20265;-72
2024/02/10 08:40:22;;;;;;;25.17;5.50;;;22.80;74.50;;;;;;5072094;28;20183;-71
2024/02/10 08:42:53;;;;;;;30.77;5.33;;;22.80;74.20;;;;;;5071778;28;20187;-71
2024/02/10 08:45:20;;;;;;;26.70;4.50;;;22.80;74.50;;;;;;5071062;28;20598;-71
2024/02/10 08:47:48;;;;;;;30.33;5.10;;;22.80;74.40;;;;;;5071418;28;20179;-71
2024/02/10 08:50:16;;;;;;;25.87;6.57;;;22.80;74.10;;;;;;5070058;28;20187;-71
2024/02/10 08:52:51;;;;;;;24.63;4.90;;;22.80;74.20;;;;;;5071539;28;20187;-71
2024/02/10 08:55:18;;;;;;;29.67;5.63;;;22.90;75.70;;;;;;5064611;28;20179;-74
2024/02/10 08:57:46;;;;;;;27.27;5.30;;;22.80;76.50;;;;;;5075129;28;20580;-72
2024/02/10 09:00:19;;;;;;;31.97;6.53;;;22.50;79.90;;;;;;5075464;28;20709;-71
2024/02/10 09:02:46;;;;;;;27.10;5.97;;;22.20;82.10;;;;;;5074873;28;20654;-71
2024/02/10 09:05:13;;;;;;;28.50;5.47;;;21.90;83.10;;;;;;5075407;28;20188;-71
2024/02/10 09:07:41;;;;;;;31.00;6.67;;;21.70;84.20;;;;;;5074641;28;20191;-72
2024/02/10 09:10:08;;;;;;;35.43;6.93;;;21.50;85.10;;;;;;5075324;28;20244;-72
2024/02/10 09:12:36;;;;;;;37.00;7.17;;;21.40;86.00;;;;;;5074584;28;20571;-73
2024/02/10 09:15:03;;;;;;;29.87;6.83;;;21.30;86.90;;;;;;5074682;28;20178;-74
2024/02/10 09:17:31;;;;;;;34.30;7.30;;;21.20;87.70;;;;;;5074847;28;20315;-70
2024/02/10 09:20:00;;;;;;;36.43;7.50;;;20.90;88.70;;;;;;5069046;28;20186;-71
2024/02/10 09:22:27;;;;;;;33.70;8.37;;;20.80;89.40;;;;;;5071745;28;20266;-74
2024/02/10 09:24:54;;;;;;;31.03;7.73;;;20.80;89.90;;;;;;5074210;28;20208;-72
2024/02/10 09:27:22;;;;;;;38.13;8.97;;;20.80;90.30;;;;;;5073655;28;20211;-73
2024/02/10 09:29:51;;;;;;;36.30;10.33;;;20.60;90.40;;;;;;5069735;28;20254;-72
2024/02/10 09:32:22;;;;;;;39.40;8.73;;;20.70;90.90;;;;;;5072767;28;20585;-71
2024/02/10 09:34:52;;;;;;;40.73;8.57;;;20.50;90.60;;;;;;5074533;28;20217;-70
2024/02/10 09:37:19;;;;;;;33.30;8.70;;;20.40;90.80;;;;;;5074398;28;20570;-69
2024/02/10 09:39:47;;;;;;;35.03;8.20;;;20.40;90.70;;;;;;5074477;28;20198;-70
2024/02/10 09:42:21;;;;;;;36.60;8.73;;;20.40;91.10;;;;;;5062212;28;20207;-70
2024/02/10 09:44:52;;;;;;;37.93;10.10;;;20.40;91.20;;;;;;5073830;28;20682;-71
2024/02/10 09:47:23;;;;;;;39.23;8.93;;;20.40;91.20;;;;;;5073914;28;20270;-71
2024/02/10 09:49:53;;;;;;;33.77;9.00;;;20.50;91.40;;;;;;5072065;28;20237;-71
2024/02/10 09:52:23;;;;;;;37.87;10.43;;;20.60;91.40;;;;;;5073665;28;20661;-72
2024/02/10 09:54:50;;;;;;;35.43;9.90;;;20.60;91.30;;;;;;5073680;28;20255;-71
2024/02/10 09:57:22;;;;;;;39.63;10.53;;;20.60;91.30;;;;;;5072986;28;20222;-71
2024/02/10 09:59:50;;;;;;;34.73;9.67;;;20.60;91.10;;;;;;5070830;28;20179;-72
2024/02/10 10:02:17;;;;;;;40.20;10.47;;;20.60;91.00;;;;;;5073598;28;20183;-71
2024/02/10 10:04:47;;;;;;;44.40;10.97;;;20.60;91.00;;;;;;5073562;28;20167;-71
2024/02/10 10:07:15;;;;;;;50.27;11.23;;;20.70;91.10;;;;;;5072759;28;20183;-71
2024/02/10 10:09:45;;;;;;;45.80;11.43;;;20.70;90.90;;;;;;5071699;28;20175;-72
2024/02/10 10:12:12;;;;;;;35.17;11.10;;;20.80;90.90;;;;;;5073727;28;20228;-71
2024/02/10 10:14:40;;;;;;;37.83;11.27;;;20.80;90.90;;;;;;5073154;28;20591;-71
2024/02/10 10:17:13;;;;;;;42.70;11.33;;;20.80;90.90;;;;;;5073186;28;20319;-71
2024/02/10 10:19:41;;;;;;;35.13;11.30;;;20.80;90.80;;;;;;5072060;28;20186;-71
2024/02/10 10:22:08;;;;;;;39.40;11.43;;;20.80;90.80;;;;;;5073244;28;20274;-71
2024/02/10 10:24:40;;;;;;;38.50;11.63;;;20.80;90.70;;;;;;5072876;28;20715;-72
2024/02/10 10:27:08;;;;;;;36.23;11.73;;;20.80;90.50;;;;;;5073200;28;20214;-70
2024/02/10 10:29:37;;;;;;;42.37;11.67;;;20.80;90.30;;;;;;5073115;28;20171;-71
2024/02/10 10:32:06;;;;;;;40.07;11.80;;;20.80;90.10;;;;;;5072766;28;20183;-71
2024/02/10 10:34:37;;;;;;;37.70;10.37;;;20.90;90.20;;;;;;5073063;28;20187;-71
2024/02/10 10:37:04;;;;;;;42.93;10.47;;;20.90;89.60;;;;;;5072779;28;20222;-71
2024/02/10 10:39:33;;;;;;;36.00;10.60;;;20.80;89.50;;;;;;5072498;28;20299;-71
2024/02/10 10:42:00;;;;;;;35.33;10.87;;;20.90;89.50;;;;;;5070511;28;20328;-71
2024/02/10 10:44:29;;;;;;;35.23;10.50;;;20.90;89.10;;;;;;5072417;28;20172;-71
2024/02/10 10:46:59;;;;;;;34.93;10.77;;;20.90;89.00;;;;;;5071128;28;20172;-71
2024/02/10 10:49:26;;;;;;;31.53;10.20;;;20.80;88.60;;;;;;5071614;28;20199;-71
2024/02/10 10:52:05;;;;;;;34.00;10.97;;;20.90;88.50;;;;;;5065434;28;20190;-71
2024/02/10 10:54:39;;;;;;;36.53;11.43;;;20.90;88.20;;;;;;5072295;28;20183;-71
2024/02/10 10:57:15;;;;;;;30.67;9.70;;;20.90;87.90;;;;;;5065858;28;20204;-70
2024/02/10 11:00:15;;;;;;;37.90;10.67;;;20.90;87.40;;;;;;5068578;28;20205;-71
2024/02/10 11:02:52;;;;;;;38.60;10.40;;;20.90;87.40;;;;;;5071908;28;20641;-72
2024/02/10 11:05:23;;;;;;;34.47;10.27;;;21.00;87.30;;;;;;5065758;28;20642;-72
2024/02/10 11:08:13;;;;;;;35.70;8.83;;;21.00;87.20;;;;;;5071501;28;20171;-70
2024/02/10 11:10:44;;;;;;;32.93;8.93;;;21.00;87.10;;;;;;5067389;28;20543;-71
2024/02/10 11:13:26;;;;;;;41.33;8.60;;;21.00;86.80;;;;;;5068970;28;20267;-71
2024/02/10 11:16:10;;;;;;;31.00;9.17;;;21.00;86.60;;;;;;5072232;28;20194;-71
2024/02/10 11:18:43;;;;;;;33.70;9.30;;;21.00;86.40;;;;;;5071421;28;20272;-71
2024/02/10 11:21:18;;;;;;;46.67;10.00;;;21.00;86.60;;;;;;5066105;28;20278;-71
2024/02/10 11:24:05;;;;;;;29.47;8.57;;;21.00;86.20;;;;;;5067150;28;20628;-72
2024/02/10 11:26:41;;;;;;;26.63;8.00;;;21.00;85.90;;;;;;5062686;28;20649;-72
2024/02/10 11:29:18;;;;;;;27.40;7.50;;;21.00;85.70;;;;;;5072372;28;20538;-72
2024/02/10 11:31:45;;;;;;;33.57;7.33;;;21.00;85.30;;;;;;5070719;28;20187;-72
2024/02/10 11:34:19;;;;;;;34.57;7.37;;;21.00;84.90;;;;;;5070781;28;20207;-72
2024/02/10 11:36:54;;;;;;;29.00;7.40;;;20.90;84.30;;;;;;5071149;28;20229;-71
2024/02/10 11:39:24;;;;;;;30.23;7.17;;;20.90;84.20;;;;;;5072690;28;20190;-72
2024/02/10 11:41:58;;;;;;;35.60;7.97;;;20.90;83.80;;;;;;5071929;28;20183;-73
2024/02/10 11:44:28;;;;;;;37.30;7.47;;;20.90;83.90;;;;;;5072122;28;20186;-72
2024/02/10 11:47:00;;;;;;;33.50;8.23;;;20.90;83.70;;;;;;5071630;28;20187;-72
2024/02/10 11:49:27;;;;;;;32.27;7.73;;;21.00;83.60;;;;;;5071842;28;20242;-71
2024/02/10 11:51:58;;;;;;;32.00;6.87;;;21.00;83.50;;;;;;5066240;28;20193;-72
2024/02/10 11:54:28;;;;;;;28.97;7.30;;;21.00;83.30;;;;;;5071380;28;20187;-71
2024/02/10 11:56:57;;;;;;;29.40;6.60;;;21.00;83.40;;;;;;5072068;28;20234;-71
2024/02/10 11:59:27;;;;;;;31.27;7.07;;;21.00;83.60;;;;;;5071468;28;20186;-72
2024/02/10 12:01:55;;;;;;;31.63;7.00;;;21.00;83.10;;;;;;5072048;28;20167;-71
2024/02/10 12:04:25;;;;;;;27.93;6.27;;;20.90;82.80;;;;;;5071538;28;20179;-71
2024/02/10 12:06:52;;;;;;;37.03;7.63;;;20.90;82.50;;;;;;5072166;28;20305;-70
2024/02/10 12:09:20;;;;;;;32.00;6.33;;;20.90;82.80;;;;;;5072277;28;20175;-72
2024/02/10 12:11:55;;;;;;;23.43;6.23;;;20.90;82.50;;;;;;5071504;28;20672;-70
2024/02/10 12:14:23;;;;;;;28.67;6.60;;;21.00;82.80;;;;;;5071721;28;20178;-71
2024/02/10 12:16:52;;;;;;;23.63;6.63;;;20.90;82.90;;;;;;5072321;28;20632;-69
2024/02/10 12:19:21;;;;;;;33.17;6.57;;;21.00;83.20;;;;;;5071362;28;20179;-70
2024/02/10 12:21:49;;;;;;;31.80;6.17;;;20.90;82.80;;;;;;5070701;28;20197;-70
2024/02/10 12:24:22;;;;;;;31.73;7.30;;;20.90;82.80;;;;;;5071999;28;20191;-70
2024/02/10 12:26:50;;;;;;;24.90;6.40;;;20.90;82.80;;;;;;5071898;28;20254;-70
2024/02/10 12:29:19;;;;;;;26.83;6.63;;;20.90;82.70;;;;;;5071517;28;20199;-71
2024/02/10 12:31:50;;;;;;;19.77;6.10;;;20.90;82.50;;;;;;5075253;28;20654;-71
2024/02/10 12:34:17;;;;;;;23.33;6.07;;;20.90;82.20;;;;;;5072925;28;20294;-70
2024/02/10 12:36:46;;;;;;;29.60;6.10;;;20.90;82.30;;;;;;5075113;28;20231;-71
2024/02/10 12:39:15;;;;;;;27.90;5.67;;;20.90;82.10;;;;;;5075583;28;20195;-70
2024/02/10 12:41:43;;;;;;;23.63;5.30;;;20.90;82.20;;;;;;5075267;28;20184;-72
2024/02/10 12:44:11;;;;;;;28.83;6.67;;;20.90;81.60;;;;;;5075720;28;20183;-71
2024/02/10 12:46:39;;;;;;;21.40;5.43;;;20.90;81.70;;;;;;5078139;28;20230;-71
2024/02/10 12:49:10;;;;;;;25.47;6.23;;;21.00;81.50;;;;;;5079703;28;20540;-71
2024/02/10 12:51:37;;;;;;;27.80;5.90;;;21.00;81.60;;;;;;5077215;28;20221;-71